sensor_id;sensor_type;location;lat;lon;timestamp;P1;durP1;ratioP1;P2;durP2;ratioP2
21543;SDS011;10933;50.754;11.508;2023-04-08T00:00:11;14.17;;;12.67;;
21543;SDS011;10933;50.754;11.508;2023-04-08T00:02:37;13.43;;;12.53;;
21543;SDS011;10933;50.754;11.508;2023-04-08T00:05:04;13.10;;;12.07;;
21543;SDS011;10933;50.754;11.508;2023-04-08T00:07:30;14.13;;;13.00;;
21543;SDS011;10933;50.754;11.508;2023-04-08T00:09:56;14.30;;;13.13;;
21543;SDS011;10933;50.754;11.508;2023-04-08T00:12:22;13.43;;;12.63;;
21543;SDS011;10933;50.754;11.508;2023-04-08T00:14:48;13.53;;;12.63;;
21543;SDS011;10933;50.754;11.508;2023-04-08T00:17:15;14.23;;;13.40;;
21543;SDS011;10933;50.754;11.508;2023-04-08T00:19:41;14.57;;;13.63;;
21543;SDS011;10933;50.754;11.508;2023-04-08T00:22:08;13.47;;;12.67;;
21543;SDS011;10933;50.754;11.508;2023-04-08T00:24:35;12.50;;;11.70;;
21543;SDS011;10933;50.754;11.508;2023-04-08T00:27:01;13.87;;;12.97;;
21543;SDS011;10933;50.754;11.508;2023-04-08T00:29:28;14.77;;;13.37;;
21543;SDS011;10933;50.754;11.508;2023-04-08T00:31:54;14.10;;;12.97;;
21543;SDS011;10933;50.754;11.508;2023-04-08T00:34:20;13.73;;;12.73;;
21543;SDS011;10933;50.754;11.508;2023-04-08T00:36:46;13.43;;;12.53;;
21543;SDS011;10933;50.754;11.508;2023-04-08T00:39:12;13.67;;;12.67;;
21543;SDS011;10933;50.754;11.508;2023-04-08T00:41:39;13.20;;;12.40;;
21543;SDS011;10933;50.754;11.508;2023-04-08T00:44:05;13.63;;;12.80;;
21543;SDS011;10933;50.754;11.508;2023-04-08T00:46:35;12.93;;;12.13;;
21543;SDS011;10933;50.754;11.508;2023-04-08T00:49:03;13.57;;;12.37;;
21543;SDS011;10933;50.754;11.508;2023-04-08T00:51:31;13.70;;;12.80;;
21543;SDS011;10933;50.754;11.508;2023-04-08T00:53:57;14.17;;;13.10;;
21543;SDS011;10933;50.754;11.508;2023-04-08T00:56:28;14.13;;;13.13;;
21543;SDS011;10933;50.754;11.508;2023-04-08T00:58:57;13.70;;;12.57;;
21543;SDS011;10933;50.754;11.508;2023-04-08T01:04:27;13.80;;;12.90;;
21543;SDS011;10933;50.754;11.508;2023-04-08T01:07:14;14.07;;;13.17;;
21543;SDS011;10933;50.754;11.508;2023-04-08T01:09:52;13.33;;;12.43;;
21543;SDS011;10933;50.754;11.508;2023-04-08T01:12:24;13.97;;;13.07;;
21543;SDS011;10933;50.754;11.508;2023-04-08T01:14:56;14.67;;;13.67;;
21543;SDS011;10933;50.754;11.508;2023-04-08T01:17:29;14.57;;;13.47;;
21543;SDS011;10933;50.754;11.508;2023-04-08T01:19:57;14.63;;;13.73;;
21543;SDS011;10933;50.754;11.508;2023-04-08T01:22:33;15.13;;;13.67;;
21543;SDS011;10933;50.754;11.508;2023-04-08T01:25:18;14.70;;;13.70;;
21543;SDS011;10933;50.754;11.508;2023-04-08T01:27:50;14.77;;;13.87;;
21543;SDS011;10933;50.754;11.508;2023-04-08T01:30:21;14.93;;;13.73;;
21543;SDS011;10933;50.754;11.508;2023-04-08T01:32:49;14.30;;;13.40;;
21543;SDS011;10933;50.754;11.508;2023-04-08T01:35:18;14.97;;;14.00;;
21543;SDS011;10933;50.754;11.508;2023-04-08T01:37:44;15.40;;;14.20;;
21543;SDS011;10933;50.754;11.508;2023-04-08T01:40:14;15.40;;;14.30;;
21543;SDS011;10933;50.754;11.508;2023-04-08T01:42:42;15.80;;;14.70;;
21543;SDS011;10933;50.754;11.508;2023-04-08T01:45:12;14.07;;;12.87;;
21543;SDS011;10933;50.754;11.508;2023-04-08T01:47:40;14.27;;;13.40;;
21543;SDS011;10933;50.754;11.508;2023-04-08T01:50:09;14.37;;;13.47;;
21543;SDS011;10933;50.754;11.508;2023-04-08T01:52:36;15.50;;;14.37;;
21543;SDS011;10933;50.754;11.508;2023-04-08T01:55:04;14.23;;;13.13;;
21543;SDS011;10933;50.754;11.508;2023-04-08T01:57:31;14.73;;;13.63;;
21543;SDS011;10933;50.754;11.508;2023-04-08T02:00:02;14.37;;;13.47;;
21543;SDS011;10933;50.754;11.508;2023-04-08T02:02:35;14.33;;;13.33;;
21543;SDS011;10933;50.754;11.508;2023-04-08T02:05:02;13.03;;;12.13;;
21543;SDS011;10933;50.754;11.508;2023-04-08T02:07:28;14.10;;;12.97;;
21543;SDS011;10933;50.754;11.508;2023-04-08T02:09:55;13.93;;;12.93;;
21543;SDS011;10933;50.754;11.508;2023-04-08T02:12:21;14.03;;;13.13;;
21543;SDS011;10933;50.754;11.508;2023-04-08T02:14:47;13.67;;;12.77;;
21543;SDS011;10933;50.754;11.508;2023-04-08T02:17:18;14.77;;;13.50;;
21543;SDS011;10933;50.754;11.508;2023-04-08T02:19:55;13.43;;;12.63;;
21543;SDS011;10933;50.754;11.508;2023-04-08T02:25:10;14.73;;;13.43;;
21543;SDS011;10933;50.754;11.508;2023-04-08T02:27:39;14.00;;;13.10;;
21543;SDS011;10933;50.754;11.508;2023-04-08T02:30:07;13.73;;;12.83;;
21543;SDS011;10933;50.754;11.508;2023-04-08T02:32:35;13.57;;;12.67;;
21543;SDS011;10933;50.754;11.508;2023-04-08T02:35:03;13.67;;;12.67;;
21543;SDS011;10933;50.754;11.508;2023-04-08T02:37:30;13.10;;;11.93;;
21543;SDS011;10933;50.754;11.508;2023-04-08T02:39:57;13.60;;;12.80;;
21543;SDS011;10933;50.754;11.508;2023-04-08T02:42:23;12.87;;;11.97;;
21543;SDS011;10933;50.754;11.508;2023-04-08T02:44:49;13.40;;;12.43;;
21543;SDS011;10933;50.754;11.508;2023-04-08T02:47:16;12.70;;;11.77;;
21543;SDS011;10933;50.754;11.508;2023-04-08T02:49:42;13.77;;;12.97;;
21543;SDS011;10933;50.754;11.508;2023-04-08T02:52:08;13.50;;;12.50;;
21543;SDS011;10933;50.754;11.508;2023-04-08T02:54:34;12.63;;;11.73;;
21543;SDS011;10933;50.754;11.508;2023-04-08T02:57:00;12.97;;;11.97;;
21543;SDS011;10933;50.754;11.508;2023-04-08T02:59:26;12.17;;;11.37;;
21543;SDS011;10933;50.754;11.508;2023-04-08T03:01:52;12.77;;;11.83;;
21543;SDS011;10933;50.754;11.508;2023-04-08T03:04:19;13.17;;;12.33;;
21543;SDS011;10933;50.754;11.508;2023-04-08T03:06:45;12.50;;;11.70;;
21543;SDS011;10933;50.754;11.508;2023-04-08T03:09:11;12.80;;;12.10;;
21543;SDS011;10933;50.754;11.508;2023-04-08T03:11:37;12.93;;;12.03;;
21543;SDS011;10933;50.754;11.508;2023-04-08T03:14:04;12.93;;;12.03;;
21543;SDS011;10933;50.754;11.508;2023-04-08T03:16:30;13.07;;;11.97;;
21543;SDS011;10933;50.754;11.508;2023-04-08T03:18:56;12.20;;;11.40;;
21543;SDS011;10933;50.754;11.508;2023-04-08T03:21:22;12.97;;;12.17;;
21543;SDS011;10933;50.754;11.508;2023-04-08T03:23:48;12.47;;;11.67;;
21543;SDS011;10933;50.754;11.508;2023-04-08T03:26:15;12.67;;;11.87;;
21543;SDS011;10933;50.754;11.508;2023-04-08T03:28:41;12.43;;;11.53;;
21543;SDS011;10933;50.754;11.508;2023-04-08T03:31:07;11.80;;;11.00;;
21543;SDS011;10933;50.754;11.508;2023-04-08T03:33:33;12.53;;;11.77;;
21543;SDS011;10933;50.754;11.508;2023-04-08T03:35:59;12.53;;;11.53;;
21543;SDS011;10933;50.754;11.508;2023-04-08T03:38:25;11.70;;;10.90;;
21543;SDS011;10933;50.754;11.508;2023-04-08T03:40:51;13.10;;;11.63;;
21543;SDS011;10933;50.754;11.508;2023-04-08T03:43:17;12.00;;;10.90;;
21543;SDS011;10933;50.754;11.508;2023-04-08T03:45:45;11.40;;;10.67;;
21543;SDS011;10933;50.754;11.508;2023-04-08T03:48:11;11.73;;;10.80;;
21543;SDS011;10933;50.754;11.508;2023-04-08T03:50:37;12.73;;;11.83;;
21543;SDS011;10933;50.754;11.508;2023-04-08T03:53:04;11.83;;;11.03;;
21543;SDS011;10933;50.754;11.508;2023-04-08T03:55:30;11.60;;;10.90;;
21543;SDS011;10933;50.754;11.508;2023-04-08T03:57:56;12.30;;;11.40;;
21543;SDS011;10933;50.754;11.508;2023-04-08T04:00:22;12.27;;;11.37;;
21543;SDS011;10933;50.754;11.508;2023-04-08T04:02:49;11.53;;;10.83;;
21543;SDS011;10933;50.754;11.508;2023-04-08T04:05:15;12.50;;;11.57;;
21543;SDS011;10933;50.754;11.508;2023-04-08T04:07:41;11.67;;;10.97;;
21543;SDS011;10933;50.754;11.508;2023-04-08T04:10:08;12.13;;;11.33;;
21543;SDS011;10933;50.754;11.508;2023-04-08T04:12:34;11.87;;;11.13;;
21543;SDS011;10933;50.754;11.508;2023-04-08T04:15:00;12.20;;;11.30;;
21543;SDS011;10933;50.754;11.508;2023-04-08T04:17:27;11.43;;;10.73;;
21543;SDS011;10933;50.754;11.508;2023-04-08T04:19:53;11.23;;;10.43;;
21543;SDS011;10933;50.754;11.508;2023-04-08T04:22:19;11.10;;;10.40;;
21543;SDS011;10933;50.754;11.508;2023-04-08T04:24:46;12.23;;;11.33;;
21543;SDS011;10933;50.754;11.508;2023-04-08T04:27:13;12.93;;;12.13;;
21543;SDS011;10933;50.754;11.508;2023-04-08T04:29:41;8.80;;;8.23;;
21543;SDS011;10933;50.754;11.508;2023-04-08T04:32:08;11.03;;;10.33;;
21543;SDS011;10933;50.754;11.508;2023-04-08T04:34:34;9.60;;;9.00;;
21543;SDS011;10933;50.754;11.508;2023-04-08T04:37:00;10.23;;;9.60;;
21543;SDS011;10933;50.754;11.508;2023-04-08T04:39:26;9.87;;;9.27;;
21543;SDS011;10933;50.754;11.508;2023-04-08T04:41:52;10.00;;;9.30;;
21543;SDS011;10933;50.754;11.508;2023-04-08T04:44:18;8.60;;;8.10;;
21543;SDS011;10933;50.754;11.508;2023-04-08T04:46:44;8.37;;;7.87;;
21543;SDS011;10933;50.754;11.508;2023-04-08T04:49:10;9.30;;;8.70;;
21543;SDS011;10933;50.754;11.508;2023-04-08T04:51:37;9.43;;;8.80;;
21543;SDS011;10933;50.754;11.508;2023-04-08T04:54:03;9.20;;;8.60;;
21543;SDS011;10933;50.754;11.508;2023-04-08T04:56:29;5.83;;;5.43;;
21543;SDS011;10933;50.754;11.508;2023-04-08T04:58:55;9.63;;;9.03;;
21543;SDS011;10933;50.754;11.508;2023-04-08T05:01:21;4.70;;;4.40;;
21543;SDS011;10933;50.754;11.508;2023-04-08T05:03:47;5.93;;;5.53;;
21543;SDS011;10933;50.754;11.508;2023-04-08T05:06:13;5.13;;;4.83;;
21543;SDS011;10933;50.754;11.508;2023-04-08T05:08:40;5.07;;;4.77;;
21543;SDS011;10933;50.754;11.508;2023-04-08T05:11:09;5.57;;;5.23;;
21543;SDS011;10933;50.754;11.508;2023-04-08T05:13:35;4.70;;;4.40;;
21543;SDS011;10933;50.754;11.508;2023-04-08T05:16:01;5.07;;;4.77;;
21543;SDS011;10933;50.754;11.508;2023-04-08T05:18:27;5.13;;;4.83;;
21543;SDS011;10933;50.754;11.508;2023-04-08T05:20:54;5.10;;;4.80;;
21543;SDS011;10933;50.754;11.508;2023-04-08T05:23:20;4.57;;;4.27;;
21543;SDS011;10933;50.754;11.508;2023-04-08T05:25:46;12.77;;;4.80;;
21543;SDS011;10933;50.754;11.508;2023-04-08T05:28:12;4.40;;;4.10;;
21543;SDS011;10933;50.754;11.508;2023-04-08T05:30:38;4.33;;;4.03;;
21543;SDS011;10933;50.754;11.508;2023-04-08T05:33:04;4.77;;;4.47;;
21543;SDS011;10933;50.754;11.508;2023-04-08T05:35:30;4.90;;;4.60;;
21543;SDS011;10933;50.754;11.508;2023-04-08T05:37:56;4.50;;;4.10;;
21543;SDS011;10933;50.754;11.508;2023-04-08T05:40:23;4.47;;;4.17;;
21543;SDS011;10933;50.754;11.508;2023-04-08T05:42:49;4.83;;;4.53;;
21543;SDS011;10933;50.754;11.508;2023-04-08T05:45:15;4.57;;;4.27;;
21543;SDS011;10933;50.754;11.508;2023-04-08T05:47:41;4.80;;;4.50;;
21543;SDS011;10933;50.754;11.508;2023-04-08T05:50:07;5.27;;;4.97;;
21543;SDS011;10933;50.754;11.508;2023-04-08T05:52:35;4.80;;;4.40;;
21543;SDS011;10933;50.754;11.508;2023-04-08T05:55:01;5.07;;;4.70;;
21543;SDS011;10933;50.754;11.508;2023-04-08T05:57:27;4.53;;;4.13;;
21543;SDS011;10933;50.754;11.508;2023-04-08T05:59:53;4.60;;;4.30;;
21543;SDS011;10933;50.754;11.508;2023-04-08T06:02:19;4.97;;;4.67;;
21543;SDS011;10933;50.754;11.508;2023-04-08T06:04:45;4.83;;;4.53;;
21543;SDS011;10933;50.754;11.508;2023-04-08T06:07:11;4.90;;;4.60;;
21543;SDS011;10933;50.754;11.508;2023-04-08T06:09:37;4.70;;;4.40;;
21543;SDS011;10933;50.754;11.508;2023-04-08T06:12:07;135.07;;;60.73;;
21543;SDS011;10933;50.754;11.508;2023-04-08T06:14:33;5.40;;;5.00;;
21543;SDS011;10933;50.754;11.508;2023-04-08T06:16:59;3.70;;;3.40;;
21543;SDS011;10933;50.754;11.508;2023-04-08T06:19:25;3.30;;;3.10;;
21543;SDS011;10933;50.754;11.508;2023-04-08T06:21:51;2.93;;;2.73;;
21543;SDS011;10933;50.754;11.508;2023-04-08T06:24:22;3.17;;;2.97;;
21543;SDS011;10933;50.754;11.508;2023-04-08T06:26:50;3.43;;;3.23;;
21543;SDS011;10933;50.754;11.508;2023-04-08T06:29:20;3.43;;;3.23;;
21543;SDS011;10933;50.754;11.508;2023-04-08T06:31:46;3.20;;;3.00;;
21543;SDS011;10933;50.754;11.508;2023-04-08T06:34:19;3.57;;;3.37;;
21543;SDS011;10933;50.754;11.508;2023-04-08T06:36:46;3.57;;;3.30;;
21543;SDS011;10933;50.754;11.508;2023-04-08T06:39:12;3.57;;;3.27;;
21543;SDS011;10933;50.754;11.508;2023-04-08T06:41:40;3.60;;;3.30;;
21543;SDS011;10933;50.754;11.508;2023-04-08T06:44:07;3.70;;;3.40;;
21543;SDS011;10933;50.754;11.508;2023-04-08T06:46:36;3.27;;;3.07;;
21543;SDS011;10933;50.754;11.508;2023-04-08T06:49:02;2.97;;;2.77;;
21543;SDS011;10933;50.754;11.508;2023-04-08T06:51:30;2.73;;;2.53;;
21543;SDS011;10933;50.754;11.508;2023-04-08T06:53:57;2.30;;;2.20;;
21543;SDS011;10933;50.754;11.508;2023-04-08T06:56:23;3.40;;;2.30;;
21543;SDS011;10933;50.754;11.508;2023-04-08T06:58:50;2.33;;;2.20;;
21543;SDS011;10933;50.754;11.508;2023-04-08T07:01:17;3.10;;;2.90;;
21543;SDS011;10933;50.754;11.508;2023-04-08T07:03:43;2.60;;;2.40;;
21543;SDS011;10933;50.754;11.508;2023-04-08T07:06:09;3.03;;;2.83;;
21543;SDS011;10933;50.754;11.508;2023-04-08T07:08:35;3.20;;;3.00;;
21543;SDS011;10933;50.754;11.508;2023-04-08T07:11:02;2.67;;;2.47;;
21543;SDS011;10933;50.754;11.508;2023-04-08T07:13:29;2.67;;;2.47;;
21543;SDS011;10933;50.754;11.508;2023-04-08T07:15:55;2.70;;;2.50;;
21543;SDS011;10933;50.754;11.508;2023-04-08T07:18:21;3.33;;;2.30;;
21543;SDS011;10933;50.754;11.508;2023-04-08T07:20:51;2.10;;;1.90;;
21543;SDS011;10933;50.754;11.508;2023-04-08T07:23:21;2.13;;;2.03;;
21543;SDS011;10933;50.754;11.508;2023-04-08T07:25:48;2.27;;;2.07;;
21543;SDS011;10933;50.754;11.508;2023-04-08T07:28:14;2.67;;;2.47;;
21543;SDS011;10933;50.754;11.508;2023-04-08T07:30:40;2.93;;;2.73;;
21543;SDS011;10933;50.754;11.508;2023-04-08T07:33:06;6.60;;;3.40;;
21543;SDS011;10933;50.754;11.508;2023-04-08T07:35:32;3.73;;;3.43;;
21543;SDS011;10933;50.754;11.508;2023-04-08T07:37:58;4.60;;;4.30;;
21543;SDS011;10933;50.754;11.508;2023-04-08T07:40:25;4.63;;;4.33;;
21543;SDS011;10933;50.754;11.508;2023-04-08T07:42:51;4.93;;;4.23;;
21543;SDS011;10933;50.754;11.508;2023-04-08T07:45:17;4.47;;;4.07;;
21543;SDS011;10933;50.754;11.508;2023-04-08T07:47:43;4.53;;;4.13;;
21543;SDS011;10933;50.754;11.508;2023-04-08T07:50:09;4.63;;;4.33;;
21543;SDS011;10933;50.754;11.508;2023-04-08T07:52:35;4.70;;;4.30;;
21543;SDS011;10933;50.754;11.508;2023-04-08T07:55:01;5.30;;;4.90;;
21543;SDS011;10933;50.754;11.508;2023-04-08T07:57:29;5.10;;;4.70;;
21543;SDS011;10933;50.754;11.508;2023-04-08T07:59:56;4.83;;;4.47;;
21543;SDS011;10933;50.754;11.508;2023-04-08T08:02:22;4.47;;;4.17;;
21543;SDS011;10933;50.754;11.508;2023-04-08T08:04:48;5.07;;;4.33;;
21543;SDS011;10933;50.754;11.508;2023-04-08T08:07:14;4.00;;;3.70;;
21543;SDS011;10933;50.754;11.508;2023-04-08T08:09:40;4.00;;;3.70;;
21543;SDS011;10933;50.754;11.508;2023-04-08T08:12:06;4.03;;;3.73;;
21543;SDS011;10933;50.754;11.508;2023-04-08T08:14:32;3.90;;;3.60;;
21543;SDS011;10933;50.754;11.508;2023-04-08T08:16:58;3.97;;;3.67;;
21543;SDS011;10933;50.754;11.508;2023-04-08T08:19:25;3.57;;;3.37;;
21543;SDS011;10933;50.754;11.508;2023-04-08T08:21:51;4.00;;;3.70;;
21543;SDS011;10933;50.754;11.508;2023-04-08T08:24:17;3.70;;;3.47;;
21543;SDS011;10933;50.754;11.508;2023-04-08T08:26:43;4.27;;;3.97;;
21543;SDS011;10933;50.754;11.508;2023-04-08T08:29:11;4.00;;;3.70;;
21543;SDS011;10933;50.754;11.508;2023-04-08T08:31:37;7.33;;;4.00;;
21543;SDS011;10933;50.754;11.508;2023-04-08T08:34:03;4.10;;;3.70;;
21543;SDS011;10933;50.754;11.508;2023-04-08T08:36:29;4.63;;;4.23;;
21543;SDS011;10933;50.754;11.508;2023-04-08T08:38:55;3.97;;;3.67;;
21543;SDS011;10933;50.754;11.508;2023-04-08T08:41:22;4.27;;;3.97;;
21543;SDS011;10933;50.754;11.508;2023-04-08T08:43:48;4.17;;;3.87;;
21543;SDS011;10933;50.754;11.508;2023-04-08T08:46:15;3.73;;;3.43;;
21543;SDS011;10933;50.754;11.508;2023-04-08T08:48:45;4.50;;;4.20;;
21543;SDS011;10933;50.754;11.508;2023-04-08T08:51:11;4.77;;;4.47;;
21543;SDS011;10933;50.754;11.508;2023-04-08T08:53:38;4.20;;;3.90;;
21543;SDS011;10933;50.754;11.508;2023-04-08T08:56:09;3.67;;;3.47;;
21543;SDS011;10933;50.754;11.508;2023-04-08T08:58:36;4.40;;;4.10;;
21543;SDS011;10933;50.754;11.508;2023-04-08T09:01:13;4.70;;;4.40;;
21543;SDS011;10933;50.754;11.508;2023-04-08T09:04:09;4.60;;;4.30;;
21543;SDS011;10933;50.754;11.508;2023-04-08T09:06:36;4.80;;;4.40;;
21543;SDS011;10933;50.754;11.508;2023-04-08T09:09:06;4.97;;;4.67;;
21543;SDS011;10933;50.754;11.508;2023-04-08T09:11:39;5.90;;;5.50;;
21543;SDS011;10933;50.754;11.508;2023-04-08T09:14:19;5.83;;;5.43;;
21543;SDS011;10933;50.754;11.508;2023-04-08T09:16:46;6.00;;;5.60;;
21543;SDS011;10933;50.754;11.508;2023-04-08T09:19:13;6.70;;;5.80;;
21543;SDS011;10933;50.754;11.508;2023-04-08T09:21:39;5.43;;;5.13;;
21543;SDS011;10933;50.754;11.508;2023-04-08T09:24:07;5.83;;;5.37;;
21543;SDS011;10933;50.754;11.508;2023-04-08T09:26:35;6.20;;;5.80;;
21543;SDS011;10933;50.754;11.508;2023-04-08T09:31:32;5.97;;;5.57;;
21543;SDS011;10933;50.754;11.508;2023-04-08T09:34:15;5.93;;;5.53;;
21543;SDS011;10933;50.754;11.508;2023-04-08T09:36:43;5.97;;;5.57;;
21543;SDS011;10933;50.754;11.508;2023-04-08T09:39:09;6.30;;;5.90;;
21543;SDS011;10933;50.754;11.508;2023-04-08T09:41:36;5.73;;;5.33;;
21543;SDS011;10933;50.754;11.508;2023-04-08T09:44:04;5.90;;;5.50;;
21543;SDS011;10933;50.754;11.508;2023-04-08T09:49:45;6.27;;;5.87;;
21543;SDS011;10933;50.754;11.508;2023-04-08T09:57:24;6.17;;;5.77;;
21543;SDS011;10933;50.754;11.508;2023-04-08T09:59:56;6.60;;;6.10;;
21543;SDS011;10933;50.754;11.508;2023-04-08T10:02:29;6.73;;;6.27;;
21543;SDS011;10933;50.754;11.508;2023-04-08T10:05:05;7.10;;;6.40;;
21543;SDS011;10933;50.754;11.508;2023-04-08T10:07:33;8.13;;;7.53;;
21543;SDS011;10933;50.754;11.508;2023-04-08T10:10:00;7.17;;;6.67;;
21543;SDS011;10933;50.754;11.508;2023-04-08T10:12:27;8.50;;;7.77;;
21543;SDS011;10933;50.754;11.508;2023-04-08T10:17:51;9.80;;;9.10;;
21543;SDS011;10933;50.754;11.508;2023-04-08T10:25:32;10.13;;;9.43;;
21543;SDS011;10933;50.754;11.508;2023-04-08T10:27:59;10.17;;;9.47;;
21543;SDS011;10933;50.754;11.508;2023-04-08T10:30:43;10.27;;;9.53;;
21543;SDS011;10933;50.754;11.508;2023-04-08T10:35:48;10.67;;;9.83;;
21543;SDS011;10933;50.754;11.508;2023-04-08T10:38:21;10.67;;;9.87;;
21543;SDS011;10933;50.754;11.508;2023-04-08T10:40:47;9.97;;;9.27;;
21543;SDS011;10933;50.754;11.508;2023-04-08T10:43:15;10.33;;;9.53;;
21543;SDS011;10933;50.754;11.508;2023-04-08T10:45:41;11.07;;;10.37;;
21543;SDS011;10933;50.754;11.508;2023-04-08T10:48:12;11.30;;;10.50;;
21543;SDS011;10933;50.754;11.508;2023-04-08T10:50:39;10.80;;;10.10;;
21543;SDS011;10933;50.754;11.508;2023-04-08T10:53:05;11.00;;;10.20;;
21543;SDS011;10933;50.754;11.508;2023-04-08T10:55:32;10.93;;;10.13;;
21543;SDS011;10933;50.754;11.508;2023-04-08T10:58:05;10.67;;;9.97;;
21543;SDS011;10933;50.754;11.508;2023-04-08T11:00:35;10.80;;;9.97;;
21543;SDS011;10933;50.754;11.508;2023-04-08T11:03:03;10.97;;;10.27;;
21543;SDS011;10933;50.754;11.508;2023-04-08T11:05:34;10.80;;;10.10;;
21543;SDS011;10933;50.754;11.508;2023-04-08T11:08:01;9.47;;;8.77;;
21543;SDS011;10933;50.754;11.508;2023-04-08T11:10:28;10.97;;;10.27;;
21543;SDS011;10933;50.754;11.508;2023-04-08T11:12:56;10.53;;;9.83;;
21543;SDS011;10933;50.754;11.508;2023-04-08T11:15:25;11.50;;;10.80;;
21543;SDS011;10933;50.754;11.508;2023-04-08T11:17:52;12.00;;;11.20;;
21543;SDS011;10933;50.754;11.508;2023-04-08T11:20:19;12.40;;;11.67;;
21543;SDS011;10933;50.754;11.508;2023-04-08T11:22:46;13.20;;;12.20;;
21543;SDS011;10933;50.754;11.508;2023-04-08T11:25:12;13.50;;;12.50;;
21543;SDS011;10933;50.754;11.508;2023-04-08T11:27:39;14.97;;;13.67;;
21543;SDS011;10933;50.754;11.508;2023-04-08T11:30:05;15.03;;;14.03;;
21543;SDS011;10933;50.754;11.508;2023-04-08T11:32:33;15.03;;;14.10;;
21543;SDS011;10933;50.754;11.508;2023-04-08T11:35:00;15.40;;;14.30;;
21543;SDS011;10933;50.754;11.508;2023-04-08T11:37:38;17.27;;;15.87;;
21543;SDS011;10933;50.754;11.508;2023-04-08T11:40:09;18.57;;;17.07;;
21543;SDS011;10933;50.754;11.508;2023-04-08T11:42:36;19.97;;;17.23;;
21543;SDS011;10933;50.754;11.508;2023-04-08T11:45:09;18.37;;;16.77;;
21543;SDS011;10933;50.754;11.508;2023-04-08T11:47:36;18.67;;;17.17;;
21543;SDS011;10933;50.754;11.508;2023-04-08T11:50:03;18.73;;;17.33;;
21543;SDS011;10933;50.754;11.508;2023-04-08T11:52:40;20.20;;;18.30;;
21543;SDS011;10933;50.754;11.508;2023-04-08T11:57:49;20.40;;;18.50;;
21543;SDS011;10933;50.754;11.508;2023-04-08T12:00:16;21.33;;;19.30;;
21543;SDS011;10933;50.754;11.508;2023-04-08T12:02:44;20.37;;;18.40;;
21543;SDS011;10933;50.754;11.508;2023-04-08T12:05:11;20.40;;;18.40;;
21543;SDS011;10933;50.754;11.508;2023-04-08T12:07:38;20.17;;;18.07;;
21543;SDS011;10933;50.754;11.508;2023-04-08T12:10:04;19.17;;;17.50;;
21543;SDS011;10933;50.754;11.508;2023-04-08T12:12:31;17.30;;;16.10;;
21543;SDS011;10933;50.754;11.508;2023-04-08T12:14:57;18.17;;;16.77;;
21543;SDS011;10933;50.754;11.508;2023-04-08T12:17:23;18.23;;;16.30;;
21543;SDS011;10933;50.754;11.508;2023-04-08T12:19:50;18.27;;;16.90;;
21543;SDS011;10933;50.754;11.508;2023-04-08T12:22:16;18.27;;;16.63;;
21543;SDS011;10933;50.754;11.508;2023-04-08T12:24:42;18.60;;;16.97;;
21543;SDS011;10933;50.754;11.508;2023-04-08T12:27:08;19.13;;;17.60;;
21543;SDS011;10933;50.754;11.508;2023-04-08T12:29:34;17.10;;;15.77;;
21543;SDS011;10933;50.754;11.508;2023-04-08T12:32:00;18.03;;;16.73;;
21543;SDS011;10933;50.754;11.508;2023-04-08T12:34:28;20.10;;;18.40;;
21543;SDS011;10933;50.754;11.508;2023-04-08T12:36:54;20.97;;;18.87;;
21543;SDS011;10933;50.754;11.508;2023-04-08T12:39:20;20.17;;;18.30;;
21543;SDS011;10933;50.754;11.508;2023-04-08T12:41:47;20.60;;;18.83;;
21543;SDS011;10933;50.754;11.508;2023-04-08T12:44:13;22.80;;;17.97;;
21543;SDS011;10933;50.754;11.508;2023-04-08T12:46:39;20.13;;;18.17;;
21543;SDS011;10933;50.754;11.508;2023-04-08T12:49:05;21.03;;;18.97;;
21543;SDS011;10933;50.754;11.508;2023-04-08T12:51:31;18.47;;;17.10;;
21543;SDS011;10933;50.754;11.508;2023-04-08T12:53:58;19.33;;;18.03;;
21543;SDS011;10933;50.754;11.508;2023-04-08T12:56:25;17.55;;;16.35;;
21543;SDS011;10933;50.754;11.508;2023-04-08T12:58:51;19.47;;;18.13;;
21543;SDS011;10933;50.754;11.508;2023-04-08T13:01:19;18.90;;;17.37;;
21543;SDS011;10933;50.754;11.508;2023-04-08T13:03:46;20.63;;;19.03;;
21543;SDS011;10933;50.754;11.508;2023-04-08T13:06:12;18.73;;;17.03;;
21543;SDS011;10933;50.754;11.508;2023-04-08T13:08:39;20.90;;;19.03;;
21543;SDS011;10933;50.754;11.508;2023-04-08T13:11:06;20.43;;;18.60;;
21543;SDS011;10933;50.754;11.508;2023-04-08T13:13:32;20.80;;;18.90;;
21543;SDS011;10933;50.754;11.508;2023-04-08T13:15:59;20.50;;;18.63;;
21543;SDS011;10933;50.754;11.508;2023-04-08T13:18:25;20.67;;;18.73;;
21543;SDS011;10933;50.754;11.508;2023-04-08T13:20:51;21.17;;;19.10;;
21543;SDS011;10933;50.754;11.508;2023-04-08T13:23:18;21.50;;;19.50;;
21543;SDS011;10933;50.754;11.508;2023-04-08T13:25:45;22.03;;;19.73;;
21543;SDS011;10933;50.754;11.508;2023-04-08T13:28:12;21.50;;;19.73;;
21543;SDS011;10933;50.754;11.508;2023-04-08T13:30:38;20.93;;;19.03;;
21543;SDS011;10933;50.754;11.508;2023-04-08T13:33:04;21.87;;;19.93;;
21543;SDS011;10933;50.754;11.508;2023-04-08T13:35:30;21.90;;;19.77;;
21543;SDS011;10933;50.754;11.508;2023-04-08T13:37:56;22.50;;;20.20;;
21543;SDS011;10933;50.754;11.508;2023-04-08T13:40:23;23.37;;;20.90;;
21543;SDS011;10933;50.754;11.508;2023-04-08T13:42:49;24.27;;;21.63;;
21543;SDS011;10933;50.754;11.508;2023-04-08T13:45:15;23.50;;;21.00;;
21543;SDS011;10933;50.754;11.508;2023-04-08T13:47:41;29.10;;;23.53;;
21543;SDS011;10933;50.754;11.508;2023-04-08T13:50:07;23.87;;;21.47;;
21543;SDS011;10933;50.754;11.508;2023-04-08T13:52:34;23.23;;;20.77;;
21543;SDS011;10933;50.754;11.508;2023-04-08T13:55:00;26.03;;;21.77;;
21543;SDS011;10933;50.754;11.508;2023-04-08T13:57:26;26.37;;;22.43;;
21543;SDS011;10933;50.754;11.508;2023-04-08T13:59:52;31.03;;;22.43;;
21543;SDS011;10933;50.754;11.508;2023-04-08T14:02:18;26.37;;;22.73;;
21543;SDS011;10933;50.754;11.508;2023-04-08T14:04:45;24.70;;;21.13;;
21543;SDS011;10933;50.754;11.508;2023-04-08T14:07:12;25.47;;;21.67;;
21543;SDS011;10933;50.754;11.508;2023-04-08T14:09:38;24.03;;;21.63;;
21543;SDS011;10933;50.754;11.508;2023-04-08T14:12:05;25.57;;;21.57;;
21543;SDS011;10933;50.754;11.508;2023-04-08T14:14:31;23.87;;;21.33;;
21543;SDS011;10933;50.754;11.508;2023-04-08T14:16:57;25.00;;;22.40;;
21543;SDS011;10933;50.754;11.508;2023-04-08T14:19:23;26.47;;;22.20;;
21543;SDS011;10933;50.754;11.508;2023-04-08T14:21:49;31.43;;;22.73;;
21543;SDS011;10933;50.754;11.508;2023-04-08T14:24:15;28.87;;;22.33;;
21543;SDS011;10933;50.754;11.508;2023-04-08T14:26:41;25.57;;;22.40;;
21543;SDS011;10933;50.754;11.508;2023-04-08T14:29:08;25.10;;;22.20;;
21543;SDS011;10933;50.754;11.508;2023-04-08T14:31:34;29.27;;;23.63;;
21543;SDS011;10933;50.754;11.508;2023-04-08T14:34:00;26.60;;;21.73;;
21543;SDS011;10933;50.754;11.508;2023-04-08T14:36:27;31.47;;;23.30;;
21543;SDS011;10933;50.754;11.508;2023-04-08T14:38:55;28.13;;;23.60;;
21543;SDS011;10933;50.754;11.508;2023-04-08T14:41:21;24.23;;;21.67;;
21543;SDS011;10933;50.754;11.508;2023-04-08T14:43:50;25.13;;;21.23;;
21543;SDS011;10933;50.754;11.508;2023-04-08T14:46:16;26.13;;;22.63;;
21543;SDS011;10933;50.754;11.508;2023-04-08T14:48:42;25.57;;;22.33;;